Time;durP1;ratioP1;P1;durP2;ratioP2;P2;SDS_P1;SDS_P2;PMS_P1;PMS_P2;Temp;Humidity;BMP_temperature;BMP_pressure;BME280_temperature;BME280_humidity;BME280_pressure;Samples;Min_cycle;Max_cycle;Signal;HPM_P1;HPM_P2
2023/12/09 00:00:41;;;;;;;16.77;5.60;;;;;;;6.76;100.00;100952.06;4833320;29;20555;-67
2023/12/09 00:03:29;;;;;;;20.55;7.25;;;;;;;6.74;100.00;100948.75;4823905;29;20143;-67
2023/12/09 00:06:19;;;;;;;21.27;7.80;;;;;;;6.73;100.00;100947.91;4810581;29;20133;-67
2023/12/09 00:09:08;;;;;;;18.13;6.40;;;;;;;6.77;100.00;100940.97;4823745;29;20086;-67
2023/12/09 00:11:56;;;;;;;17.73;5.85;;;;;;;6.79;100.00;100936.13;4822850;29;20472;-67
2023/12/09 00:14:44;;;;;;;19.40;5.95;;;;;;;6.77;100.00;100940.16;4822516;29;20061;-66
2023/12/09 00:17:32;;;;;;;16.23;5.93;;;;;;;6.77;100.00;100932.03;4840087;29;20042;-67
2023/12/09 00:20:20;;;;;;;19.40;5.80;;;;;;;6.75;100.00;100932.25;4824753;29;20054;-67
2023/12/09 00:23:08;;;;;;;19.23;5.75;;;;;;;6.73;100.00;100945.22;4822755;29;20130;-67
2023/12/09 00:25:56;;;;;;;21.33;6.15;;;;;;;6.76;100.00;100939.34;4828187;29;20054;-67
2023/12/09 00:28:45;;;;;;;23.83;6.95;;;;;;;6.75;100.00;100934.97;4825144;29;20054;-68
2023/12/09 00:31:33;;;;;;;21.48;6.35;;;;;;;6.74;100.00;100941.47;4825295;29;20085;-68
2023/12/09 00:34:21;;;;;;;15.95;5.80;;;;;;;6.76;100.00;100947.47;4826292;29;20194;-67
2023/12/09 00:37:09;;;;;;;16.20;5.80;;;;;;;6.75;100.00;100950.41;4827009;29;20050;-67
2023/12/09 00:39:57;;;;;;;16.80;5.43;;;;;;;6.75;100.00;100959.34;4826173;29;20058;-66
2023/12/09 00:42:48;;;;;;;19.80;6.30;;;;;;;6.74;100.00;100949.56;4843662;29;20150;-65
2023/12/09 00:45:36;;;;;;;21.25;6.95;;;;;;;6.74;100.00;100949.56;4845382;29;20136;-67
2023/12/09 00:48:24;;;;;;;18.15;6.00;;;;;;;6.73;100.00;100947.91;4836762;29;20050;-68
2023/12/09 00:51:13;;;;;;;21.48;6.85;;;;;;;6.70;100.00;100948.41;4825527;29;20046;-67
2023/12/09 00:54:01;;;;;;;18.98;6.35;;;;;;;6.70;100.00;100948.41;4827601;29;20053;-66
2023/12/09 00:56:49;;;;;;;16.13;6.00;;;;;;;6.71;100.00;100947.34;4826719;29;20058;-67
2023/12/09 00:59:37;;;;;;;15.63;5.43;;;;;;;6.70;100.00;100943.00;4833261;29;20480;-66
2023/12/09 01:02:25;;;;;;;20.98;6.50;;;;;;;6.73;100.00;100956.03;4799885;29;20104;-68
2023/12/09 01:05:14;;;;;;;18.92;6.05;;;;;;;6.73;100.00;100947.91;4826110;29;20050;-68
2023/12/09 01:08:02;;;;;;;17.75;6.13;;;;;;;6.74;100.00;100938.75;4835616;29;20054;-68
2023/12/09 01:10:50;;;;;;;19.05;5.28;;;;;;;6.73;100.00;100936.28;4825729;29;20050;-69
2023/12/09 01:13:38;;;;;;;19.50;5.78;;;;;;;6.70;100.00;100932.16;4824735;29;20146;-68
2023/12/09 01:16:26;;;;;;;17.63;5.47;;;;;;;6.69;100.00;100935.94;4834467;29;20737;-67
2023/12/09 01:19:14;;;;;;;18.13;6.05;;;;;;;6.68;100.00;100938.88;4827077;29;20142;-68
2023/12/09 01:22:02;;;;;;;20.17;6.38;;;;;;;6.68;100.00;100936.97;4825318;29;20054;-68
2023/12/09 01:24:50;;;;;;;17.17;5.18;;;;;;;6.68;100.00;100934.28;4826247;29;20460;-68
2023/12/09 01:27:38;;;;;;;24.55;6.13;;;;;;;6.66;100.00;100938.28;4840362;29;20046;-68
2023/12/09 01:30:26;;;;;;;21.58;6.57;;;;;;;6.68;100.00;100936.97;4843505;29;20529;-67
2023/12/09 01:33:14;;;;;;;17.63;5.20;;;;;;;6.65;100.00;100942.88;4844547;29;20060;-67
2023/12/09 01:36:03;;;;;;;20.98;6.18;;;;;;;6.69;100.00;100943.25;4843890;29;20056;-67
2023/12/09 01:38:51;;;;;;;16.00;5.03;;;;;;;6.68;100.00;100942.41;4820985;29;20042;-68
2023/12/09 01:41:39;;;;;;;21.13;6.30;;;;;;;6.67;100.00;100934.53;4844504;29;20050;-68
2023/12/09 01:44:27;;;;;;;21.65;5.60;;;;;;;6.68;100.00;100934.28;4843168;29;20847;-68
2023/12/09 01:47:15;;;;;;;19.33;6.70;;;;;;;6.66;100.00;100939.09;4837746;29;20046;-68
2023/12/09 01:50:04;;;;;;;24.17;5.93;;;;;;;6.64;100.00;100941.25;4837453;29;20058;-68
2023/12/09 01:52:53;;;;;;;17.88;5.40;;;;;;;6.64;100.00;100937.69;4825100;29;20047;-67
2023/12/09 01:55:41;;;;;;;19.65;6.43;;;;;;;6.63;100.00;100926.06;4836121;29;20132;-62
2023/12/09 01:58:30;;;;;;;19.23;5.93;;;;;;;6.62;100.00;100921.72;4859182;29;20046;-68
2023/12/09 02:01:18;;;;;;;21.55;5.82;;;;;;;6.61;100.00;100911.94;4849202;29;20133;-66
2023/12/09 02:04:06;;;;;;;21.17;5.90;;;;;;;6.58;100.00;100918.66;4858041;29;20519;-67
2023/12/09 02:06:55;;;;;;;19.20;5.35;;;;;;;6.58;100.00;100913.22;4839312;29;20042;-64
2023/12/09 02:09:43;;;;;;;21.30;6.28;;;;;;;6.60;100.00;100910.28;4839388;29;20054;-68
2023/12/09 02:12:36;;;;;;;17.67;5.55;;;;;;;6.59;100.00;100905.94;4840548;29;20101;-62
2023/12/09 02:15:50;;;;;;;26.98;6.72;;;;;;;6.57;100.00;100895.34;4837442;29;20049;-67
2023/12/09 02:18:40;;;;;;;19.92;6.38;;;;;;;6.55;100.00;100899.38;4825451;29;20129;-69
2023/12/09 02:21:28;;;;;;;20.17;6.00;;;;;;;6.55;100.00;100902.06;4826781;29;20133;-69
2023/12/09 02:24:16;;;;;;;15.23;4.90;;;;;;;6.55;100.00;100902.06;4843292;29;20050;-69
2023/12/09 02:27:11;;;;;;;20.08;5.55;;;;;;;6.58;100.00;100896.16;4834697;29;20081;-67
2023/12/09 02:30:11;;;;;;;16.95;5.25;;;;;;;6.58;100.00;100902.41;4832101;29;20424;-68
2023/12/09 02:33:00;;;;;;;18.20;5.38;;;;;;;6.57;100.00;100906.19;4824134;29;20129;-67
2023/12/09 02:35:51;;;;;;;18.45;5.53;;;;;;;6.56;100.00;100896.41;4823616;29;20499;-67
2023/12/09 02:38:39;;;;;;;19.90;6.40;;;;;;;6.57;100.00;100905.38;4824950;29;20491;-66
2023/12/09 02:41:28;;;;;;;24.70;7.47;;;;;;;6.59;100.00;100898.66;4822612;29;20060;-67
2023/12/09 02:44:16;;;;;;;18.60;5.90;;;;;;;6.58;100.00;100902.41;4825362;29;20053;-67
2023/12/09 02:47:04;;;;;;;21.15;5.93;;;;;;;6.59;100.00;100882.41;4826196;29;20099;-67
2023/12/09 02:49:52;;;;;;;22.92;6.57;;;;;;;6.59;100.00;100874.28;4839578;29;20054;-67
2023/12/09 02:52:40;;;;;;;23.45;7.03;;;;;;;6.54;100.00;100874.19;4841433;29;20136;-67
2023/12/09 02:55:28;;;;;;;19.90;6.70;;;;;;;6.51;100.00;100868.41;4838106;29;20686;-67
2023/12/09 02:58:16;;;;;;;18.83;5.97;;;;;;;6.47;100.00;100875.34;4841473;29;20444;-67
2023/12/09 03:01:04;;;;;;;18.48;5.50;;;;;;;6.46;100.00;100873.72;4829874;29;20118;-67
2023/12/09 03:03:52;;;;;;;23.00;6.10;;;;;;;6.45;100.00;100870.22;4822645;29;20456;-67
2023/12/09 03:06:40;;;;;;;21.45;6.00;;;;;;;6.45;100.00;100869.38;4823291;29;20194;-68
2023/12/09 03:09:28;;;;;;;19.08;5.97;;;;;;;6.43;100.00;100869.63;4835092;29;20369;-68
2023/12/09 03:12:17;;;;;;;23.40;6.68;;;;;;;6.43;100.00;100860.69;4840318;29;20457;-67
2023/12/09 03:15:06;;;;;;;21.02;5.95;;;;;;;6.43;100.00;100855.28;4841156;29;20054;-67
2023/12/09 03:17:54;;;;;;;22.00;5.85;;;;;;;6.41;100.00;100847.38;4829021;29;20384;-67
2023/12/09 03:20:42;;;;;;;21.67;5.95;;;;;;;6.40;100.00;100838.44;4827507;29;20618;-68
2023/12/09 03:23:30;;;;;;;20.50;5.97;;;;;;;6.40;100.00;100857.38;4840705;29;20303;-67
2023/12/09 03:26:19;;;;;;;17.48;5.55;;;;;;;6.43;100.00;100845.25;4839100;29;20402;-67
2023/12/09 03:29:07;;;;;;;17.50;5.38;;;;;;;6.47;100.00;100845.59;4827919;29;20050;-67
2023/12/09 03:31:55;;;;;;;17.92;5.03;;;;;;;6.45;100.00;100855.84;4840469;29;20046;-67
2023/12/09 03:34:46;;;;;;;18.02;5.15;;;;;;;6.45;100.00;100828.78;4839363;29;20038;-68
2023/12/09 03:37:34;;;;;;;17.88;5.10;;;;;;;6.46;100.00;100852.06;4840736;29;20567;-68
2023/12/09 03:40:22;;;;;;;12.68;4.72;;;;;;;6.48;100.00;100847.25;4823619;29;20054;-67
2023/12/09 03:43:10;;;;;;;21.70;5.60;;;;;;;6.48;100.00;100842.66;4823452;29;20050;-67
2023/12/09 03:45:59;;;;;;;19.20;5.68;;;;;;;6.49;100.00;100847.00;4823997;29;20054;-66
2023/12/09 03:48:47;;;;;;;18.33;5.50;;;;;;;6.50;100.00;100845.94;4821353;29;20054;-68
2023/12/09 03:51:36;;;;;;;17.17;4.78;;;;;;;6.52;100.00;100837.59;4822006;29;20523;-68
2023/12/09 03:54:24;;;;;;;18.17;5.20;;;;;;;6.50;100.00;100818.88;4821363;29;20054;-67
2023/12/09 03:57:13;;;;;;;13.93;4.80;;;;;;;6.49;100.00;100843.47;4830862;29;20160;-68
2023/12/09 04:00:04;;;;;;;23.98;5.45;;;;;;;6.47;100.00;100830.19;4810275;29;20073;-68
2023/12/09 04:02:52;;;;;;;18.88;5.35;;;;;;;6.44;100.00;100825.25;4825109;29;20054;-67
2023/12/09 04:05:41;;;;;;;24.25;6.13;;;;;;;6.43;100.00;100826.31;4825750;29;20372;-70
2023/12/09 04:08:29;;;;;;;16.90;5.00;;;;;;;6.40;100.00;100808.69;4826042;29;20057;-67
2023/12/09 04:11:17;;;;;;;18.40;5.57;;;;;;;6.41;100.00;100798.66;4827991;29;20518;-67
2023/12/09 04:14:05;;;;;;;20.92;5.65;;;;;;;6.39;100.00;100790.78;4825994;29;20537;-68
2023/12/09 04:16:53;;;;;;;19.83;5.88;;;;;;;6.39;100.00;100790.78;4827073;29;20047;-66
2023/12/09 04:19:41;;;;;;;23.67;6.05;;;;;;;6.32;100.00;100790.09;4824794;29;20050;-67
2023/12/09 04:22:29;;;;;;;23.15;6.22;;;;;;;6.29;100.00;100800.59;4826114;29;20047;-68
2023/12/09 04:25:17;;;;;;;28.90;6.20;;;;;;;6.27;100.00;100792.69;4825641;29;20054;-67
2023/12/09 04:28:05;;;;;;;20.25;5.80;;;;;;;6.27;100.00;100798.13;4836762;29;20539;-68
2023/12/09 04:30:53;;;;;;;25.60;6.20;;;;;;;6.27;100.00;100798.13;4844664;29;20079;-68
2023/12/09 04:33:44;;;;;;;18.25;5.72;;;;;;;6.29;100.00;100790.59;4843662;29;20077;-68
2023/12/09 04:36:32;;;;;;;17.02;5.03;;;;;;;6.31;100.00;100788.47;4825369;29;20054;-68
2023/12/09 04:39:20;;;;;;;18.05;5.22;;;;;;;6.32;100.00;100790.09;4825701;29;20054;-67
2023/12/09 04:42:08;;;;;;;19.00;4.90;;;;;;;6.34;100.00;100787.97;4825276;29;20423;-68
2023/12/09 04:44:56;;;;;;;19.15;5.53;;;;;;;6.34;100.00;100787.97;4812231;29;20099;-68
2023/12/09 04:47:44;;;;;;;20.55;5.30;;;;;;;6.35;100.00;100784.22;4827138;29;20046;-69
2023/12/09 04:50:32;;;;;;;16.48;5.60;;;;;;;6.35;100.00;100772.56;4829930;29;20045;-69
2023/12/09 04:53:20;;;;;;;17.08;5.15;;;;;;;6.33;100.00;100770.09;4844339;29;20162;-68
2023/12/09 04:56:09;;;;;;;18.42;5.32;;;;;;;6.31;100.00;100769.53;4842684;29;20049;-68
2023/12/09 04:58:57;;;;;;;15.80;5.60;;;;;;;6.32;100.00;100763.03;4827880;29;20065;-68
2023/12/09 05:01:45;;;;;;;19.83;5.93;;;;;;;6.34;100.00;100760.09;4825578;29;20054;-68
2023/12/09 05:04:33;;;;;;;18.20;5.18;;;;;;;6.32;100.00;100749.50;4811583;29;20042;-67
2023/12/09 05:07:25;;;;;;;18.02;4.75;;;;;;;6.34;100.00;100750.09;4825498;29;20043;-67
2023/12/09 05:10:13;;;;;;;15.43;5.55;;;;;;;6.36;100.00;100757.97;4829701;29;20046;-67
2023/12/09 05:13:01;;;;;;;16.38;5.43;;;;;;;6.34;100.00;100757.41;4842184;29;20061;-67
2023/12/09 05:15:50;;;;;;;20.17;5.13;;;;;;;6.31;100.00;100744.34;4842771;29;20070;-67
2023/12/09 05:18:38;;;;;;;21.73;5.90;;;;;;;6.32;100.00;100752.22;4842751;29;20078;-68
2023/12/09 05:21:27;;;;;;;23.77;6.35;;;;;;;6.27;100.00;100757.53;4828795;29;20061;-68
2023/12/09 05:24:23;;;;;;;22.10;5.22;;;;;;;6.27;100.00;100754.81;4815013;29;20133;-67
2023/12/09 05:27:11;;;;;;;13.68;4.53;;;;;;;6.30;100.00;100754.38;4827265;29;20766;-69
2023/12/09 05:29:59;;;;;;;12.70;4.55;;;;;;;6.36;100.00;100747.97;4841569;29;20050;-67
2023/12/09 05:32:47;;;;;;;17.90;5.20;;;;;;;6.30;100.00;100743.53;4835087;29;20536;-67
2023/12/09 05:35:35;;;;;;;16.30;5.40;;;;;;;6.29;100.00;100739.19;4843369;29;20061;-68
2023/12/09 05:38:23;;;;;;;18.65;5.13;;;;;;;6.30;100.00;100738.13;4827475;29;20098;-68
2023/12/09 05:41:12;;;;;;;18.30;5.05;;;;;;;6.27;100.00;100741.28;4843460;29;20089;-68
2023/12/09 05:44:00;;;;;;;19.98;5.03;;;;;;;6.26;100.00;100739.66;4843084;29;20507;-67
2023/12/09 05:46:48;;;;;;;18.30;5.88;;;;;;;6.27;100.00;100737.78;4827397;29;20053;-68
2023/12/09 05:49:36;;;;;;;19.02;5.38;;;;;;;6.24;100.00;100732.84;4829638;29;20134;-67
2023/12/09 05:52:24;;;;;;;17.90;5.28;;;;;;;6.24;100.00;100728.25;4843535;29;20415;-67
2023/12/09 05:55:16;;;;;;;14.63;4.50;;;;;;;6.23;100.00;100732.03;4829438;29;20048;-68
2023/12/09 05:58:04;;;;;;;16.38;4.63;;;;;;;6.32;100.00;100735.16;4824923;29;20129;-67
2023/12/09 06:00:52;;;;;;;17.00;5.18;;;;;;;6.35;100.00;100730.09;4821483;29;20128;-67
2023/12/09 06:03:40;;;;;;;15.52;5.43;;;;;;;6.34;100.00;100731.16;4838244;29;20092;-67
2023/12/09 06:06:28;;;;;;;15.95;4.95;;;;;;;6.28;100.00;100717.78;4832670;29;20182;-69
2023/12/09 06:09:16;;;;;;;13.40;4.18;;;;;;;6.30;100.00;100711.06;4825187;29;20050;-70
2023/12/09 06:12:04;;;;;;;19.67;5.20;;;;;;;6.28;100.00;100715.09;4841948;29;20046;-67
2023/12/09 06:14:53;;;;;;;17.38;4.78;;;;;;;6.27;100.00;100716.13;4844752;29;20049;-68
2023/12/09 06:17:41;;;;;;;16.77;4.85;;;;;;;6.21;100.00;100709.00;4829150;29;20050;-67
2023/12/09 06:20:29;;;;;;;21.75;6.10;;;;;;;6.17;100.00;100695.94;4829507;29;20050;-65
2023/12/09 06:23:17;;;;;;;16.95;5.03;;;;;;;6.17;100.00;100700.53;4842476;29;20085;-63
2023/12/09 06:26:05;;;;;;;16.40;4.82;;;;;;;6.14;100.00;100691.00;4843471;29;20066;-66
2023/12/09 06:28:54;;;;;;;16.90;4.97;;;;;;;6.16;100.00;100693.50;4828782;29;20053;-67
2023/12/09 06:31:42;;;;;;;17.73;4.80;;;;;;;6.24;100.00;100684.97;4841645;29;20046;-66
2023/12/09 06:34:30;;;;;;;15.75;4.60;;;;;;;6.18;100.00;100675.09;4856152;29;20113;-63
2023/12/09 06:37:18;;;;;;;20.27;5.28;;;;;;;6.15;100.00;100671.00;4855590;29;20496;-67
2023/12/09 06:40:06;;;;;;;17.80;5.05;;;;;;;6.15;100.00;100670.19;4848437;29;20076;-64
2023/12/09 06:42:54;;;;;;;16.50;4.85;;;;;;;6.15;100.00;100670.19;4157700;29;10000830;-69
2023/12/09 06:45:42;;;;;;;19.02;5.25;;;;;;;6.12;100.00;100649.03;4828082;29;20049;-69
2023/12/09 06:48:30;;;;;;;19.85;5.38;;;;;;;6.11;100.00;100652.78;4837159;29;20054;-68
2023/12/09 06:51:19;;;;;;;19.80;5.32;;;;;;;6.11;100.00;100645.53;4837868;29;20065;-69
2023/12/09 06:54:07;;;;;;;16.98;5.63;;;;;;;6.14;100.00;100649.63;4831840;29;20062;-69
2023/12/09 06:56:56;;;;;;;21.88;4.85;;;;;;;6.12;100.00;100646.34;4822586;29;20115;-68
2023/12/09 06:59:44;;;;;;;17.17;4.63;;;;;;;6.13;100.00;100637.16;4825274;29;20057;-69
2023/12/09 07:02:32;;;;;;;17.40;5.10;;;;;;;6.11;100.00;100626.59;4838970;29;20165;-69
2023/12/09 07:05:39;;;;;;;20.50;5.60;;;;;;;6.09;100.00;100611.66;4837321;29;20416;-69
2023/12/09 07:08:27;;;;;;;16.92;5.18;;;;;;;6.00;100.00;100602.31;4819611;29;20055;-67
2023/12/09 07:11:18;;;;;;;19.35;4.68;;;;;;;5.98;100.00;100579.00;4836156;29;20179;-68
2023/12/09 07:14:06;;;;;;;22.77;5.28;;;;;;;5.96;100.00;100573.06;4837519;29;20058;-67
2023/12/09 07:16:54;;;;;;;18.08;5.00;;;;;;;5.96;100.00;100569.50;4831777;29;20054;-68
2023/12/09 07:19:42;;;;;;;21.77;5.32;;;;;;;5.95;100.00;100568.69;4820392;29;20089;-69
2023/12/09 07:22:30;;;;;;;18.98;5.50;;;;;;;5.96;100.00;100572.19;4837640;29;20753;-69
2023/12/09 07:25:19;;;;;;;21.73;5.45;;;;;;;5.96;100.00;100570.34;4837753;29;20058;-69
2023/12/09 07:28:08;;;;;;;19.92;5.50;;;;;;;5.97;100.00;100565.75;4836983;29;20411;-68
2023/12/09 07:30:56;;;;;;;20.45;5.45;;;;;;;5.97;100.00;100566.56;4827034;29;20050;-68
2023/12/09 07:33:44;;;;;;;20.20;5.68;;;;;;;5.98;100.00;100568.19;4824786;29;20133;-68
2023/12/09 07:36:33;;;;;;;24.45;6.07;;;;;;;5.96;100.00;100570.34;4836533;29;20101;-69
2023/12/09 07:39:21;;;;;;;18.02;5.20;;;;;;;5.98;100.00;100567.38;4830762;29;20054;-69
2023/12/09 07:42:09;;;;;;;22.88;5.55;;;;;;;5.97;100.00;100561.16;4837538;29;20062;-71
2023/12/09 07:44:58;;;;;;;19.98;5.35;;;;;;;5.99;100.00;100563.63;4820405;29;20487;-71
2023/12/09 07:47:46;;;;;;;22.73;5.45;;;;;;;6.02;100.00;100559.63;4821348;29;20054;-71
2023/12/09 07:50:35;;;;;;;20.73;5.50;;;;;;;6.03;100.00;100539.59;4832016;29;20117;-69
2023/12/09 07:53:23;;;;;;;24.05;5.25;;;;;;;6.04;100.00;100542.06;4840013;29;20057;-70
2023/12/09 07:56:11;;;;;;;23.20;5.88;;;;;;;6.05;100.00;100530.19;4831166;29;20054;-69
2023/12/09 07:58:59;;;;;;;20.35;5.80;;;;;;;6.04;100.00;100531.25;4822418;29;20523;-69
2023/12/09 08:01:47;;;;;;;16.83;5.28;;;;;;;6.06;100.00;100525.59;4823187;29;20073;-70
2023/12/09 08:04:35;;;;;;;18.45;4.85;;;;;;;6.07;100.00;100519.94;4822999;29;20134;-70
2023/12/09 08:07:23;;;;;;;19.02;4.93;;;;;;;6.10;100.00;100515.94;4827396;29;20506;-72
2023/12/09 08:10:11;;;;;;;19.15;5.20;;;;;;;6.18;100.00;100512.78;4834416;29;20049;-69
2023/12/09 08:12:59;;;;;;;14.05;4.88;;;;;;;6.15;100.00;100518.72;4833005;29;20047;-70
2023/12/09 08:15:47;;;;;;;19.67;5.68;;;;;;;6.13;100.00;100520.84;4824635;29;20512;-71
2023/12/09 08:18:35;;;;;;;20.88;5.22;;;;;;;6.14;100.00;100525.19;4825543;29;20050;-69
2023/12/09 08:21:24;;;;;;;19.25;4.72;;;;;;;6.13;100.00;100510.00;4840310;29;20066;-70
2023/12/09 08:24:12;;;;;;;18.38;5.10;;;;;;;6.14;100.00;100511.66;4840314;29;20053;-70
2023/12/09 08:27:00;;;;;;;14.82;4.85;;;;;;;6.15;100.00;100513.28;4828866;29;20054;-70
2023/12/09 08:29:48;;;;;;;19.83;5.43;;;;;;;6.15;100.00;100507.88;4833715;29;20050;-70
2023/12/09 08:32:41;;;;;;;21.88;5.32;;;;;;;6.16;100.00;100506.84;4827592;29;20175;-69
2023/12/09 08:35:30;;;;;;;17.33;4.78;;;;;;;6.16;100.00;100504.13;4839524;29;20195;-69
2023/12/09 08:38:18;;;;;;;18.42;4.88;;;;;;;6.18;100.00;100501.97;4835780;29;20043;-70
2023/12/09 08:41:07;;;;;;;21.17;5.05;;;;;;;6.19;100.00;100490.09;4822919;29;20054;-71
2023/12/09 08:43:55;;;;;;;21.10;5.43;;;;;;;6.21;100.00;100496.09;4822506;29;20195;-69
2023/12/09 08:46:43;;;;;;;16.42;4.40;;;;;;;6.23;100.00;100483.16;4823997;29;20078;-69
2023/12/09 08:49:31;;;;;;;19.05;4.90;;;;;;;6.23;100.00;100485.84;4833969;29;20098;-68
2023/12/09 08:52:21;;;;;;;18.95;5.45;;;;;;;6.25;100.00;100488.28;4843136;29;20072;-69
2023/12/09 08:55:09;;;;;;;21.35;5.38;;;;;;;6.25;100.00;100483.69;4844779;29;20053;-70
2023/12/09 08:57:57;;;;;;;23.50;5.28;;;;;;;6.26;100.00;100471.81;4838250;29;20536;-70
2023/12/09 09:00:45;;;;;;;25.10;5.28;;;;;;;6.29;100.00;100476.72;4826454;29;20139;-72
2023/12/09 09:03:36;;;;;;;19.00;5.07;;;;;;;6.31;100.00;100480.00;4826634;29;20050;-70
2023/12/09 09:06:24;;;;;;;18.23;5.15;;;;;;;6.36;100.00;100463.03;4827172;29;20059;-69
2023/12/09 09:09:12;;;;;;;15.50;4.40;;;;;;;6.37;100.00;100457.38;4832933;29;20047;-69
2023/12/09 09:12:02;;;;;;;15.30;4.78;;;;;;;6.36;100.00;100444.91;4824950;29;20531;-67
2023/12/09 09:14:50;;;;;;;21.52;5.13;;;;;;;6.36;100.00;100427.84;4824991;29;20134;-67
2023/12/09 09:17:39;;;;;;;16.88;4.93;;;;;;;6.36;100.00;100425.97;4825373;29;20133;-67
2023/12/09 09:20:27;;;;;;;17.70;4.60;;;;;;;6.36;100.00;100403.50;4489120;29;10000116;-69
2023/12/09 09:23:16;;;;;;;17.77;4.60;;;;;;;6.37;100.00;100394.31;4808644;29;20106;-69
2023/12/09 09:26:05;;;;;;;19.65;5.30;;;;;;;6.37;100.00;100378.91;4822450;29;20054;-69
2023/12/09 09:28:53;;;;;;;18.98;5.00;;;;;;;6.39;100.00;100357.00;4823903;29;20058;-69
2023/12/09 09:31:41;;;;;;;18.08;5.22;;;;;;;6.40;100.00;100358.66;4839684;29;20061;-69
2023/12/09 09:34:29;;;;;;;20.17;4.82;;;;;;;6.40;100.00;100364.06;4840016;29;20054;-68
2023/12/09 09:37:17;;;;;;;19.05;4.85;;;;;;;6.42;100.00;100352.97;4840079;29;20210;-69
2023/12/09 09:40:06;;;;;;;17.65;5.38;;;;;;;6.42;100.00;100356.47;4837788;29;20053;-67
2023/12/09 09:43:00;;;;;;;14.98;4.57;;;;;;;6.45;100.00;100364.13;4840230;29;20400;-68
2023/12/09 09:45:48;;;;;;;20.02;5.00;;;;;;;6.46;100.00;100362.22;4838164;29;20093;-69
2023/12/09 09:48:37;;;;;;;25.02;5.10;;;;;;;6.47;100.00;100347.59;4827290;29;20150;-70
2023/12/09 09:51:28;;;;;;;20.10;4.50;;;;;;;6.47;100.00;100340.34;4839155;29;20061;-70
2023/12/09 09:54:21;;;;;;;14.70;4.20;;;;;;;6.47;100.00;100340.34;4808306;29;20058;-68
2023/12/09 09:57:11;;;;;;;18.50;4.55;;;;;;;6.48;100.00;100339.25;4837941;29;20041;-69
2023/12/09 09:59:59;;;;;;;17.40;4.43;;;;;;;6.51;100.00;100341.44;4835760;29;20100;-69
2023/12/09 10:02:49;;;;;;;18.85;4.22;;;;;;;6.53;100.00;100319.53;4825979;29;20054;-69
2023/12/09 10:05:43;;;;;;;15.85;4.47;;;;;;;6.54;100.00;100308.47;4838622;29;20134;-68
2023/12/09 10:08:31;;;;;;;15.63;4.60;;;;;;;6.56;100.00;100302.78;4838974;29;20062;-68
2023/12/09 10:11:19;;;;;;;14.80;4.43;;;;;;;6.58;100.00;100273.59;4830470;29;20244;-68
2023/12/09 10:14:07;;;;;;;16.08;4.60;;;;;;;6.61;100.00;100264.94;4822244;29;20133;-67
2023/12/09 10:16:55;;;;;;;20.17;4.85;;;;;;;6.64;100.00;100245.50;4819913;29;20050;-67
2023/12/09 10:19:43;;;;;;;19.33;4.75;;;;;;;6.66;100.00;100239.81;4833563;29;20053;-69
2023/12/09 10:22:34;;;;;;;17.50;4.13;;;;;;;6.67;100.00;100231.44;4832843;29;20194;-69
2023/12/09 10:25:22;;;;;;;19.45;4.13;;;;;;;6.69;100.00;100221.19;4838331;29;20053;-69
2023/12/09 10:28:11;;;;;;;17.75;4.30;;;;;;;6.71;100.00;100213.63;4821801;29;20060;-69
2023/12/09 10:31:00;;;;;;;20.65;4.95;;;;;;;6.75;100.00;100211.22;4834384;29;20056;-69
2023/12/09 10:33:49;;;;;;;22.15;4.93;;;;;;;6.76;100.00;100205.53;4812865;29;20104;-69
2023/12/09 10:36:37;;;;;;;13.77;3.78;;;;;;;6.78;100.00;100195.28;4840233;29;20054;-68
2023/12/09 10:39:25;;;;;;;13.85;4.00;;;;;;;6.80;100.00;100179.56;4814070;29;20054;-70
2023/12/09 10:42:13;;;;;;;11.77;3.65;;;;;;;6.83;100.00;100178.22;4832664;29;20072;-69
2023/12/09 10:45:07;;;;;;;15.57;3.70;;;;;;;6.84;100.00;100163.63;4844760;29;20147;-69
2023/12/09 10:47:56;;;;;;;15.73;4.03;;;;;;;6.86;100.00;100153.38;4853348;29;20079;-68
2023/12/09 10:50:46;;;;;;;12.32;3.80;;;;;;;6.88;100.00;100153.09;4831354;29;20077;-66
2023/12/09 10:53:34;;;;;;;14.15;3.90;;;;;;;6.88;100.00;100140.38;4835394;29;20053;-68
2023/12/09 10:56:22;;;;;;;10.50;3.85;;;;;;;6.91;100.00;100120.91;4824455;29;20065;-66
2023/12/09 10:59:10;;;;;;;14.30;3.80;;;;;;;6.94;100.00;100103.31;4831746;29;20065;-69
2023/12/09 11:01:59;;;;;;;12.60;3.95;;;;;;;6.95;100.00;100094.09;4809007;29;20516;-68
2023/12/09 11:04:47;;;;;;;13.45;3.72;;;;;;;7.01;100.00;100084.94;4824790;29;20046;-67
2023/12/09 11:07:37;;;;;;;9.90;3.42;;;;;;;7.01;100.00;100076.81;4823095;29;20125;-67
2023/12/09 11:10:25;;;;;;;11.98;3.97;;;;;;;7.09;100.00;100067.38;4811402;29;20054;-68
2023/12/09 11:13:14;;;;;;;15.02;4.00;;;;;;;7.08;100.00;100066.56;4823298;29;20504;-68
2023/12/09 11:16:24;;;;;;;13.07;4.18;;;;;;;7.11;100.00;100063.31;4825648;29;20042;-69
2023/12/09 11:19:18;;;;;;;10.38;3.75;;;;;;;7.08;100.00;100038.66;4840841;29;20514;-68
2023/12/09 11:22:13;;;;;;;11.75;3.50;;;;;;;7.04;100.00;100030.22;4837211;29;20058;-68
2023/12/09 11:25:02;;;;;;;17.23;3.85;;;;;;;7.06;100.00;100030.78;4841847;29;20128;-69
2023/12/09 11:27:54;;;;;;;12.95;3.45;;;;;;;7.05;100.00;100026.47;4826341;29;20061;-69
2023/12/09 11:30:46;;;;;;;9.43;3.20;;;;;;;7.10;100.00;100006.72;4839480;29;20061;-70
2023/12/09 11:33:34;;;;;;;15.23;3.90;;;;;;;7.10;100.00;99993.97;4823178;29;20134;-70
2023/12/09 11:36:23;;;;;;;11.23;3.33;;;;;;;7.07;100.00;99975.56;4798651;29;20051;-69
2023/12/09 11:39:19;;;;;;;11.85;3.35;;;;;;;7.04;100.00;99957.91;4640951;29;10000995;-67
2023/12/09 11:42:08;;;;;;;14.40;3.60;;;;;;;7.09;100.00;99946.28;4828154;29;20167;-68
2023/12/09 11:44:57;;;;;;;11.98;3.17;;;;;;;7.05;100.00;99920.84;4825277;29;20487;-69
2023/12/09 11:47:46;;;;;;;8.05;3.00;;;;;;;7.05;100.00;99920.84;4813348;29;20054;-68
2023/12/09 11:50:35;;;;;;;11.10;3.42;;;;;;;7.06;100.00;99906.19;4837729;29;20046;-67
2023/12/09 11:53:23;;;;;;;11.45;3.45;;;;;;;7.08;100.00;99901.34;4830207;29;20061;-67
2023/12/09 11:56:11;;;;;;;11.65;3.72;;;;;;;7.10;100.00;99898.38;4806612;29;20135;-67
2023/12/09 11:58:59;;;;;;;11.48;3.75;;;;;;;7.12;100.00;99894.31;4820328;29;20061;-67
2023/12/09 12:01:47;;;;;;;9.88;3.42;;;;;;;7.15;100.00;99880.22;4820093;29;20062;-68
2023/12/09 12:04:35;;;;;;;13.63;3.67;;;;;;;7.18;100.00;99874.25;4819865;29;20082;-66
2023/12/09 12:07:25;;;;;;;12.38;3.03;;;;;;;7.22;100.00;99861.81;4819323;29;20051;-67
2023/12/09 12:10:14;;;;;;;10.18;3.53;;;;;;;7.25;100.00;99844.19;4819421;29;20142;-66
2023/12/09 12:13:03;;;;;;;10.75;3.53;;;;;;;7.27;100.00;99827.69;4833664;29;20054;-68
2023/12/09 12:15:53;;;;;;;10.82;3.67;;;;;;;7.24;100.00;99804.66;4824303;29;20850;-65
2023/12/09 12:18:41;;;;;;;12.13;2.95;;;;;;;7.24;100.00;99783.78;4838345;29;20219;-66
2023/12/09 12:21:29;;;;;;;10.93;3.05;;;;;;;7.27;100.00;99792.47;4824006;29;20088;-68
2023/12/09 12:24:18;;;;;;;11.85;3.00;;;;;;;7.27;100.00;99776.19;4841261;29;20531;-67
2023/12/09 12:27:06;;;;;;;8.32;3.15;;;;;;;7.25;100.00;99757.50;4838231;29;20575;-70
2023/12/09 12:29:55;;;;;;;9.73;3.47;;;;;;;7.25;100.00;99747.47;4828550;29;20058;-67
2023/12/09 12:32:43;;;;;;;8.20;2.90;;;;;;;7.23;100.00;99736.09;4841849;29;20054;-65
2023/12/09 12:35:32;;;;;;;11.15;2.95;;;;;;;7.21;100.00;99713.88;4840407;29;20054;-67
2023/12/09 12:38:25;;;;;;;9.10;2.88;;;;;;;7.20;100.00;99687.88;4838971;29;20503;-65
2023/12/09 12:41:13;;;;;;;7.35;2.58;;;;;;;7.20;100.00;99677.03;4824671;29;20114;-68
2023/12/09 12:44:01;;;;;;;8.30;2.88;;;;;;;7.23;100.00;99667.56;4839810;29;20609;-66
2023/12/09 12:46:50;;;;;;;7.22;2.80;;;;;;;7.23;100.00;99662.94;4840802;29;20077;-66
2023/12/09 12:49:38;;;;;;;6.88;2.40;;;;;;;7.24;100.00;99648.31;4840600;29;20529;-69
2023/12/09 12:52:26;;;;;;;8.85;2.95;;;;;;;7.26;100.00;99653.44;4825374;29;20601;-67
2023/12/09 12:55:14;;;;;;;9.57;2.65;;;;;;;7.25;100.00;99627.47;4821803;29;20054;-67
2023/12/09 12:58:04;;;;;;;5.30;2.03;;;;;;;7.27;100.00;99624.47;4822775;29;20554;-67